sensor_id;sensor_type;location;lat;lon;timestamp;P1;durP1;ratioP1;P2;durP2;ratioP2
15358;SDS011;7779;49.596;11.070;2023-04-09T00:02:13;5.80;;;5.00;;
15358;SDS011;7779;49.596;11.070;2023-04-09T00:04:39;5.07;;;4.57;;
15358;SDS011;7779;49.596;11.070;2023-04-09T00:07:05;5.07;;;4.50;;
15358;SDS011;7779;49.596;11.070;2023-04-09T00:09:31;5.33;;;4.40;;
15358;SDS011;7779;49.596;11.070;2023-04-09T00:11:56;4.93;;;4.47;;
15358;SDS011;7779;49.596;11.070;2023-04-09T00:14:23;7.27;;;5.30;;
15358;SDS011;7779;49.596;11.070;2023-04-09T00:16:49;5.73;;;4.90;;
15358;SDS011;7779;49.596;11.070;2023-04-09T00:19:15;6.13;;;4.63;;
15358;SDS011;7779;49.596;11.070;2023-04-09T00:21:40;5.77;;;5.07;;
15358;SDS011;7779;49.596;11.070;2023-04-09T00:24:06;4.90;;;4.33;;
15358;SDS011;7779;49.596;11.070;2023-04-09T00:26:32;5.43;;;4.80;;
15358;SDS011;7779;49.596;11.070;2023-04-09T00:28:58;5.93;;;4.90;;
15358;SDS011;7779;49.596;11.070;2023-04-09T00:31:24;4.93;;;4.43;;
15358;SDS011;7779;49.596;11.070;2023-04-09T00:33:50;5.37;;;4.63;;
15358;SDS011;7779;49.596;11.070;2023-04-09T00:36:15;5.57;;;4.60;;
15358;SDS011;7779;49.596;11.070;2023-04-09T00:38:41;5.27;;;4.60;;
15358;SDS011;7779;49.596;11.070;2023-04-09T00:41:07;7.53;;;4.23;;
15358;SDS011;7779;49.596;11.070;2023-04-09T00:43:33;5.50;;;4.50;;
15358;SDS011;7779;49.596;11.070;2023-04-09T00:45:59;5.10;;;4.53;;
15358;SDS011;7779;49.596;11.070;2023-04-09T00:48:25;5.80;;;4.57;;
15358;SDS011;7779;49.596;11.070;2023-04-09T00:50:51;5.83;;;4.70;;
15358;SDS011;7779;49.596;11.070;2023-04-09T00:53:17;5.40;;;4.60;;
15358;SDS011;7779;49.596;11.070;2023-04-09T00:55:44;5.30;;;4.43;;
15358;SDS011;7779;49.596;11.070;2023-04-09T00:58:10;5.53;;;4.53;;
15358;SDS011;7779;49.596;11.070;2023-04-09T01:00:36;5.17;;;4.67;;
15358;SDS011;7779;49.596;11.070;2023-04-09T01:03:02;5.03;;;4.50;;
15358;SDS011;7779;49.596;11.070;2023-04-09T01:05:37;5.43;;;4.93;;
15358;SDS011;7779;49.596;11.070;2023-04-09T01:08:20;5.40;;;4.40;;
15358;SDS011;7779;49.596;11.070;2023-04-09T01:11:05;4.87;;;4.03;;
15358;SDS011;7779;49.596;11.070;2023-04-09T01:16:33;4.67;;;4.17;;
15358;SDS011;7779;49.596;11.070;2023-04-09T01:19:04;5.47;;;4.57;;
15358;SDS011;7779;49.596;11.070;2023-04-09T01:21:52;5.13;;;4.50;;
15358;SDS011;7779;49.596;11.070;2023-04-09T01:27:08;4.93;;;4.33;;
15358;SDS011;7779;49.596;11.070;2023-04-09T01:29:51;4.57;;;4.10;;
15358;SDS011;7779;49.596;11.070;2023-04-09T01:32:18;6.00;;;4.43;;
15358;SDS011;7779;49.596;11.070;2023-04-09T01:34:47;4.90;;;4.20;;
15358;SDS011;7779;49.596;11.070;2023-04-09T01:37:15;5.67;;;4.73;;
15358;SDS011;7779;49.596;11.070;2023-04-09T01:39:42;4.43;;;3.90;;
15358;SDS011;7779;49.596;11.070;2023-04-09T01:42:09;4.50;;;3.90;;
15358;SDS011;7779;49.596;11.070;2023-04-09T01:44:38;5.00;;;4.20;;
15358;SDS011;7779;49.596;11.070;2023-04-09T01:47:06;5.27;;;4.57;;
15358;SDS011;7779;49.596;11.070;2023-04-09T01:49:33;5.60;;;4.70;;
15358;SDS011;7779;49.596;11.070;2023-04-09T01:52:00;4.73;;;4.23;;
15358;SDS011;7779;49.596;11.070;2023-04-09T01:54:27;5.03;;;4.53;;
15358;SDS011;7779;49.596;11.070;2023-04-09T01:56:53;4.70;;;4.20;;
15358;SDS011;7779;49.596;11.070;2023-04-09T01:59:22;4.73;;;4.17;;
15358;SDS011;7779;49.596;11.070;2023-04-09T02:01:57;4.93;;;4.43;;
15358;SDS011;7779;49.596;11.070;2023-04-09T02:04:40;5.00;;;4.20;;
15358;SDS011;7779;49.596;11.070;2023-04-09T02:07:18;5.10;;;4.57;;
15358;SDS011;7779;49.596;11.070;2023-04-09T02:10:01;5.17;;;4.50;;
15358;SDS011;7779;49.596;11.070;2023-04-09T02:12:29;5.20;;;4.47;;
15358;SDS011;7779;49.596;11.070;2023-04-09T02:15:00;4.90;;;4.40;;
15358;SDS011;7779;49.596;11.070;2023-04-09T02:17:27;4.90;;;4.20;;
15358;SDS011;7779;49.596;11.070;2023-04-09T02:19:53;5.10;;;4.47;;
15358;SDS011;7779;49.596;11.070;2023-04-09T02:22:18;5.20;;;4.43;;
15358;SDS011;7779;49.596;11.070;2023-04-09T02:24:45;5.60;;;4.47;;
15358;SDS011;7779;49.596;11.070;2023-04-09T02:27:11;5.00;;;4.30;;
15358;SDS011;7779;49.596;11.070;2023-04-09T02:29:39;5.43;;;4.93;;
15358;SDS011;7779;49.596;11.070;2023-04-09T02:32:06;5.67;;;4.93;;
15358;SDS011;7779;49.596;11.070;2023-04-09T02:34:32;4.83;;;4.23;;
15358;SDS011;7779;49.596;11.070;2023-04-09T02:36:57;4.70;;;4.20;;
15358;SDS011;7779;49.596;11.070;2023-04-09T02:39:23;5.50;;;4.27;;
15358;SDS011;7779;49.596;11.070;2023-04-09T02:41:49;4.63;;;4.17;;
15358;SDS011;7779;49.596;11.070;2023-04-09T02:44:14;5.23;;;4.60;;
15358;SDS011;7779;49.596;11.070;2023-04-09T02:46:40;5.57;;;4.60;;
15358;SDS011;7779;49.596;11.070;2023-04-09T02:49:08;5.67;;;5.07;;
15358;SDS011;7779;49.596;11.070;2023-04-09T02:51:34;5.90;;;4.73;;
15358;SDS011;7779;49.596;11.070;2023-04-09T02:54:00;6.10;;;4.50;;
15358;SDS011;7779;49.596;11.070;2023-04-09T02:56:27;6.23;;;4.50;;
15358;SDS011;7779;49.596;11.070;2023-04-09T02:58:53;4.83;;;4.17;;
15358;SDS011;7779;49.596;11.070;2023-04-09T03:01:19;5.00;;;4.03;;
15358;SDS011;7779;49.596;11.070;2023-04-09T03:03:45;4.63;;;3.93;;
15358;SDS011;7779;49.596;11.070;2023-04-09T03:06:11;4.60;;;4.07;;
15358;SDS011;7779;49.596;11.070;2023-04-09T03:08:37;4.63;;;4.07;;
15358;SDS011;7779;49.596;11.070;2023-04-09T03:11:03;4.73;;;4.23;;
15358;SDS011;7779;49.596;11.070;2023-04-09T03:13:28;5.10;;;4.37;;
15358;SDS011;7779;49.596;11.070;2023-04-09T03:15:54;4.70;;;4.00;;
15358;SDS011;7779;49.596;11.070;2023-04-09T03:18:20;4.27;;;3.80;;
15358;SDS011;7779;49.596;11.070;2023-04-09T03:20:45;4.77;;;4.27;;
15358;SDS011;7779;49.596;11.070;2023-04-09T03:23:13;4.73;;;3.90;;
15358;SDS011;7779;49.596;11.070;2023-04-09T03:25:43;4.30;;;3.80;;
15358;SDS011;7779;49.596;11.070;2023-04-09T03:28:16;4.33;;;3.80;;
15358;SDS011;7779;49.596;11.070;2023-04-09T03:30:45;5.10;;;3.93;;
15358;SDS011;7779;49.596;11.070;2023-04-09T03:33:12;4.67;;;4.23;;
15358;SDS011;7779;49.596;11.070;2023-04-09T03:35:48;5.07;;;4.30;;
15358;SDS011;7779;49.596;11.070;2023-04-09T03:38:16;5.40;;;4.57;;
15358;SDS011;7779;49.596;11.070;2023-04-09T03:40:43;4.93;;;4.33;;
15358;SDS011;7779;49.596;11.070;2023-04-09T03:43:09;4.77;;;4.27;;
15358;SDS011;7779;49.596;11.070;2023-04-09T03:45:37;6.00;;;4.27;;
15358;SDS011;7779;49.596;11.070;2023-04-09T03:48:15;5.13;;;4.17;;
15358;SDS011;7779;49.596;11.070;2023-04-09T03:50:41;6.00;;;4.70;;
15358;SDS011;7779;49.596;11.070;2023-04-09T03:53:10;6.30;;;4.77;;
15358;SDS011;7779;49.596;11.070;2023-04-09T03:55:36;5.83;;;4.13;;
15358;SDS011;7779;49.596;11.070;2023-04-09T03:58:06;4.97;;;4.33;;
15358;SDS011;7779;49.596;11.070;2023-04-09T04:00:34;4.77;;;3.90;;
15358;SDS011;7779;49.596;11.070;2023-04-09T04:03:20;5.53;;;4.27;;
15358;SDS011;7779;49.596;11.070;2023-04-09T04:06:06;5.17;;;4.00;;
15358;SDS011;7779;49.596;11.070;2023-04-09T04:08:42;5.20;;;4.70;;
15358;SDS011;7779;49.596;11.070;2023-04-09T04:11:09;4.57;;;3.97;;
15358;SDS011;7779;49.596;11.070;2023-04-09T04:13:35;5.87;;;3.80;;
15358;SDS011;7779;49.596;11.070;2023-04-09T04:16:08;4.87;;;3.93;;
15358;SDS011;7779;49.596;11.070;2023-04-09T04:18:36;5.90;;;4.00;;
15358;SDS011;7779;49.596;11.070;2023-04-09T04:21:01;4.90;;;4.00;;
15358;SDS011;7779;49.596;11.070;2023-04-09T04:23:29;6.00;;;4.13;;
15358;SDS011;7779;49.596;11.070;2023-04-09T04:26:01;5.17;;;4.30;;
15358;SDS011;7779;49.596;11.070;2023-04-09T04:28:34;4.93;;;4.27;;
15358;SDS011;7779;49.596;11.070;2023-04-09T04:31:09;5.77;;;4.73;;
15358;SDS011;7779;49.596;11.070;2023-04-09T04:33:38;5.47;;;4.80;;
15358;SDS011;7779;49.596;11.070;2023-04-09T04:36:11;5.53;;;4.77;;
15358;SDS011;7779;49.596;11.070;2023-04-09T04:38:41;5.60;;;4.67;;
15358;SDS011;7779;49.596;11.070;2023-04-09T04:41:14;5.77;;;4.57;;
15358;SDS011;7779;49.596;11.070;2023-04-09T04:43:46;6.57;;;5.30;;
15358;SDS011;7779;49.596;11.070;2023-04-09T04:46:17;6.97;;;5.47;;
15358;SDS011;7779;49.596;11.070;2023-04-09T04:48:45;7.53;;;5.33;;
15358;SDS011;7779;49.596;11.070;2023-04-09T04:51:11;6.17;;;5.27;;
15358;SDS011;7779;49.596;11.070;2023-04-09T04:53:41;8.63;;;6.07;;
15358;SDS011;7779;49.596;11.070;2023-04-09T04:56:13;7.90;;;5.33;;
15358;SDS011;7779;49.596;11.070;2023-04-09T04:58:52;7.37;;;5.10;;
15358;SDS011;7779;49.596;11.070;2023-04-09T05:01:20;6.33;;;4.83;;
15358;SDS011;7779;49.596;11.070;2023-04-09T05:03:46;7.10;;;5.40;;
15358;SDS011;7779;49.596;11.070;2023-04-09T05:06:23;6.37;;;4.70;;
15358;SDS011;7779;49.596;11.070;2023-04-09T05:08:50;7.27;;;4.83;;
15358;SDS011;7779;49.596;11.070;2023-04-09T05:11:16;6.33;;;4.50;;
15358;SDS011;7779;49.596;11.070;2023-04-09T05:13:45;5.80;;;4.70;;
15358;SDS011;7779;49.596;11.070;2023-04-09T05:16:15;6.77;;;5.00;;
15358;SDS011;7779;49.596;11.070;2023-04-09T05:18:47;6.57;;;4.40;;
15358;SDS011;7779;49.596;11.070;2023-04-09T05:21:12;6.73;;;4.77;;
15358;SDS011;7779;49.596;11.070;2023-04-09T05:23:41;5.73;;;4.63;;
15358;SDS011;7779;49.596;11.070;2023-04-09T05:26:06;5.60;;;4.60;;
15358;SDS011;7779;49.596;11.070;2023-04-09T05:28:47;6.00;;;4.97;;
15358;SDS011;7779;49.596;11.070;2023-04-09T05:31:17;9.20;;;5.10;;
15358;SDS011;7779;49.596;11.070;2023-04-09T05:33:51;8.67;;;5.90;;
15358;SDS011;7779;49.596;11.070;2023-04-09T05:36:22;6.57;;;5.43;;
15358;SDS011;7779;49.596;11.070;2023-04-09T05:38:47;6.70;;;5.73;;
15358;SDS011;7779;49.596;11.070;2023-04-09T05:41:13;7.97;;;6.00;;
15358;SDS011;7779;49.596;11.070;2023-04-09T05:43:50;7.30;;;6.13;;
15358;SDS011;7779;49.596;11.070;2023-04-09T05:46:16;7.87;;;6.10;;
15358;SDS011;7779;49.596;11.070;2023-04-09T05:48:42;7.93;;;5.90;;
15358;SDS011;7779;49.596;11.070;2023-04-09T05:51:09;8.40;;;6.63;;
15358;SDS011;7779;49.596;11.070;2023-04-09T05:53:35;8.00;;;6.50;;
15358;SDS011;7779;49.596;11.070;2023-04-09T05:56:01;9.53;;;7.30;;
15358;SDS011;7779;49.596;11.070;2023-04-09T05:58:42;9.47;;;7.57;;
15358;SDS011;7779;49.596;11.070;2023-04-09T06:01:08;9.17;;;6.87;;
15358;SDS011;7779;49.596;11.070;2023-04-09T06:03:34;9.10;;;7.37;;
15358;SDS011;7779;49.596;11.070;2023-04-09T06:06:00;8.97;;;7.43;;
15358;SDS011;7779;49.596;11.070;2023-04-09T06:08:26;10.20;;;7.53;;
15358;SDS011;7779;49.596;11.070;2023-04-09T06:10:52;9.37;;;7.90;;
15358;SDS011;7779;49.596;11.070;2023-04-09T06:13:17;9.40;;;6.97;;
15358;SDS011;7779;49.596;11.070;2023-04-09T06:15:43;10.50;;;7.87;;
15358;SDS011;7779;49.596;11.070;2023-04-09T06:18:09;8.20;;;7.30;;
15358;SDS011;7779;49.596;11.070;2023-04-09T06:20:35;8.97;;;7.47;;
15358;SDS011;7779;49.596;11.070;2023-04-09T06:23:00;9.17;;;8.10;;
15358;SDS011;7779;49.596;11.070;2023-04-09T06:25:26;9.80;;;7.57;;
15358;SDS011;7779;49.596;11.070;2023-04-09T06:27:52;8.73;;;7.63;;
15358;SDS011;7779;49.596;11.070;2023-04-09T06:30:17;9.63;;;8.00;;
15358;SDS011;7779;49.596;11.070;2023-04-09T06:32:43;10.30;;;8.77;;
15358;SDS011;7779;49.596;11.070;2023-04-09T06:35:09;9.80;;;8.37;;
15358;SDS011;7779;49.596;11.070;2023-04-09T06:37:35;9.63;;;8.27;;
15358;SDS011;7779;49.596;11.070;2023-04-09T06:40:01;9.17;;;8.17;;
15358;SDS011;7779;49.596;11.070;2023-04-09T06:42:27;9.30;;;8.20;;
15358;SDS011;7779;49.596;11.070;2023-04-09T06:45:09;10.03;;;8.23;;
15358;SDS011;7779;49.596;11.070;2023-04-09T06:47:35;9.70;;;8.23;;
15358;SDS011;7779;49.596;11.070;2023-04-09T06:50:01;10.80;;;8.63;;
15358;SDS011;7779;49.596;11.070;2023-04-09T06:52:27;10.13;;;8.30;;
15358;SDS011;7779;49.596;11.070;2023-04-09T06:54:53;10.43;;;8.73;;
15358;SDS011;7779;49.596;11.070;2023-04-09T06:57:18;9.93;;;8.30;;
15358;SDS011;7779;49.596;11.070;2023-04-09T06:59:44;9.70;;;7.93;;
15358;SDS011;7779;49.596;11.070;2023-04-09T07:02:10;11.60;;;9.03;;
15358;SDS011;7779;49.596;11.070;2023-04-09T07:04:35;10.23;;;8.73;;
15358;SDS011;7779;49.596;11.070;2023-04-09T07:07:01;10.20;;;8.93;;
15358;SDS011;7779;49.596;11.070;2023-04-09T07:09:27;9.87;;;8.40;;
15358;SDS011;7779;49.596;11.070;2023-04-09T07:11:52;12.13;;;9.13;;
15358;SDS011;7779;49.596;11.070;2023-04-09T07:14:18;10.70;;;9.43;;
15358;SDS011;7779;49.596;11.070;2023-04-09T07:16:44;9.97;;;8.97;;
15358;SDS011;7779;49.596;11.070;2023-04-09T07:19:10;10.30;;;9.20;;
15358;SDS011;7779;49.596;11.070;2023-04-09T07:21:36;9.80;;;8.80;;
15358;SDS011;7779;49.596;11.070;2023-04-09T07:24:02;10.60;;;8.93;;
15358;SDS011;7779;49.596;11.070;2023-04-09T07:26:28;10.40;;;8.90;;
15358;SDS011;7779;49.596;11.070;2023-04-09T07:28:54;10.77;;;9.20;;
15358;SDS011;7779;49.596;11.070;2023-04-09T07:31:20;11.17;;;9.23;;
15358;SDS011;7779;49.596;11.070;2023-04-09T07:33:46;10.60;;;8.83;;
15358;SDS011;7779;49.596;11.070;2023-04-09T07:36:12;10.87;;;9.47;;
15358;SDS011;7779;49.596;11.070;2023-04-09T07:38:38;10.73;;;9.33;;
15358;SDS011;7779;49.596;11.070;2023-04-09T07:41:03;11.20;;;9.00;;
15358;SDS011;7779;49.596;11.070;2023-04-09T07:43:30;10.37;;;9.03;;
15358;SDS011;7779;49.596;11.070;2023-04-09T07:45:56;10.17;;;9.07;;
15358;SDS011;7779;49.596;11.070;2023-04-09T07:48:21;10.40;;;9.27;;
15358;SDS011;7779;49.596;11.070;2023-04-09T07:50:47;10.93;;;8.83;;
15358;SDS011;7779;49.596;11.070;2023-04-09T07:53:13;9.60;;;8.60;;
15358;SDS011;7779;49.596;11.070;2023-04-09T07:55:39;9.93;;;8.90;;
15358;SDS011;7779;49.596;11.070;2023-04-09T07:58:05;9.57;;;8.40;;
15358;SDS011;7779;49.596;11.070;2023-04-09T08:00:31;10.80;;;8.97;;
15358;SDS011;7779;49.596;11.070;2023-04-09T08:02:57;10.30;;;8.83;;
15358;SDS011;7779;49.596;11.070;2023-04-09T08:05:23;9.47;;;8.33;;
15358;SDS011;7779;49.596;11.070;2023-04-09T08:07:49;9.80;;;8.80;;
15358;SDS011;7779;49.596;11.070;2023-04-09T08:10:16;9.87;;;8.87;;
15358;SDS011;7779;49.596;11.070;2023-04-09T08:12:42;10.10;;;8.30;;
15358;SDS011;7779;49.596;11.070;2023-04-09T08:15:07;10.60;;;9.00;;
15358;SDS011;7779;49.596;11.070;2023-04-09T08:17:34;9.80;;;8.33;;
15358;SDS011;7779;49.596;11.070;2023-04-09T08:20:03;8.83;;;7.87;;
15358;SDS011;7779;49.596;11.070;2023-04-09T08:22:30;8.23;;;7.43;;
15358;SDS011;7779;49.596;11.070;2023-04-09T08:24:56;9.73;;;8.40;;
15358;SDS011;7779;49.596;11.070;2023-04-09T08:27:23;8.27;;;7.43;;
15358;SDS011;7779;49.596;11.070;2023-04-09T08:29:49;8.70;;;7.63;;
15358;SDS011;7779;49.596;11.070;2023-04-09T08:32:15;7.17;;;6.47;;
15358;SDS011;7779;49.596;11.070;2023-04-09T08:34:40;8.00;;;6.97;;
15358;SDS011;7779;49.596;11.070;2023-04-09T08:37:06;8.23;;;7.37;;
15358;SDS011;7779;49.596;11.070;2023-04-09T08:39:32;7.60;;;6.80;;
15358;SDS011;7779;49.596;11.070;2023-04-09T08:41:58;8.53;;;7.47;;
15358;SDS011;7779;49.596;11.070;2023-04-09T08:44:28;8.43;;;7.47;;
15358;SDS011;7779;49.596;11.070;2023-04-09T08:46:53;7.80;;;7.00;;
15358;SDS011;7779;49.596;11.070;2023-04-09T08:49:19;8.83;;;7.73;;
15358;SDS011;7779;49.596;11.070;2023-04-09T08:51:46;8.00;;;7.20;;
15358;SDS011;7779;49.596;11.070;2023-04-09T08:54:13;8.53;;;7.57;;
15358;SDS011;7779;49.596;11.070;2023-04-09T08:56:41;8.60;;;7.70;;
15358;SDS011;7779;49.596;11.070;2023-04-09T08:59:07;8.57;;;7.63;;
15358;SDS011;7779;49.596;11.070;2023-04-09T09:01:34;8.70;;;7.80;;
15358;SDS011;7779;49.596;11.070;2023-04-09T09:04:00;7.87;;;7.07;;
15358;SDS011;7779;49.596;11.070;2023-04-09T09:06:34;8.10;;;7.30;;
15358;SDS011;7779;49.596;11.070;2023-04-09T09:09:09;9.63;;;8.00;;
15358;SDS011;7779;49.596;11.070;2023-04-09T09:11:38;8.33;;;7.43;;
15358;SDS011;7779;49.596;11.070;2023-04-09T09:14:12;9.43;;;7.07;;
15358;SDS011;7779;49.596;11.070;2023-04-09T09:16:41;7.30;;;6.60;;
15358;SDS011;7779;49.596;11.070;2023-04-09T09:19:28;6.50;;;5.90;;
15358;SDS011;7779;49.596;11.070;2023-04-09T09:21:58;7.90;;;6.90;;
15358;SDS011;7779;49.596;11.070;2023-04-09T09:24:28;7.70;;;6.90;;
15358;SDS011;7779;49.596;11.070;2023-04-09T09:26:56;7.47;;;6.67;;
15358;SDS011;7779;49.596;11.070;2023-04-09T09:29:22;7.00;;;6.30;;
15358;SDS011;7779;49.596;11.070;2023-04-09T09:31:50;7.73;;;6.73;;
15358;SDS011;7779;49.596;11.070;2023-04-09T09:34:18;7.60;;;6.43;;
15358;SDS011;7779;49.596;11.070;2023-04-09T09:36:45;7.07;;;6.37;;
15358;SDS011;7779;49.596;11.070;2023-04-09T09:39:12;6.73;;;6.03;;
15358;SDS011;7779;49.596;11.070;2023-04-09T09:41:41;6.47;;;5.87;;
15358;SDS011;7779;49.596;11.070;2023-04-09T09:44:09;6.90;;;6.17;;
15358;SDS011;7779;49.596;11.070;2023-04-09T09:46:37;6.90;;;6.20;;
15358;SDS011;7779;49.596;11.070;2023-04-09T09:49:06;6.50;;;5.77;;
15358;SDS011;7779;49.596;11.070;2023-04-09T09:51:36;6.60;;;5.93;;
15358;SDS011;7779;49.596;11.070;2023-04-09T09:54:04;6.20;;;5.50;;
15358;SDS011;7779;49.596;11.070;2023-04-09T09:56:37;5.80;;;5.00;;
15358;SDS011;7779;49.596;11.070;2023-04-09T09:59:08;6.17;;;5.57;;
15358;SDS011;7779;49.596;11.070;2023-04-09T10:01:42;6.37;;;5.77;;
15358;SDS011;7779;49.596;11.070;2023-04-09T10:04:12;5.73;;;5.17;;
15358;SDS011;7779;49.596;11.070;2023-04-09T10:06:43;5.80;;;5.27;;
15358;SDS011;7779;49.596;11.070;2023-04-09T10:09:10;5.97;;;5.13;;
15358;SDS011;7779;49.596;11.070;2023-04-09T10:11:37;5.93;;;5.30;;
15358;SDS011;7779;49.596;11.070;2023-04-09T10:14:07;6.23;;;5.63;;
15358;SDS011;7779;49.596;11.070;2023-04-09T10:16:33;5.67;;;5.07;;
15358;SDS011;7779;49.596;11.070;2023-04-09T10:18:59;6.13;;;5.53;;
15358;SDS011;7779;49.596;11.070;2023-04-09T10:21:37;6.03;;;5.27;;
15358;SDS011;7779;49.596;11.070;2023-04-09T10:24:07;6.20;;;5.60;;
15358;SDS011;7779;49.596;11.070;2023-04-09T10:26:35;6.77;;;6.00;;
15358;SDS011;7779;49.596;11.070;2023-04-09T10:29:09;6.00;;;5.40;;
15358;SDS011;7779;49.596;11.070;2023-04-09T10:31:53;6.10;;;5.50;;
15358;SDS011;7779;49.596;11.070;2023-04-09T10:34:34;5.87;;;5.27;;
15358;SDS011;7779;49.596;11.070;2023-04-09T10:37:05;6.13;;;5.37;;
15358;SDS011;7779;49.596;11.070;2023-04-09T10:39:39;5.90;;;5.30;;
15358;SDS011;7779;49.596;11.070;2023-04-09T10:42:13;5.90;;;5.03;;
15358;SDS011;7779;49.596;11.070;2023-04-09T10:44:44;5.80;;;5.10;;
15358;SDS011;7779;49.596;11.070;2023-04-09T10:47:10;5.23;;;4.73;;
15358;SDS011;7779;49.596;11.070;2023-04-09T10:52:07;6.03;;;5.17;;
15358;SDS011;7779;49.596;11.070;2023-04-09T10:54:36;4.97;;;4.30;;
15358;SDS011;7779;49.596;11.070;2023-04-09T10:59:59;4.60;;;4.20;;
15358;SDS011;7779;49.596;11.070;2023-04-09T11:08:07;4.70;;;4.20;;
15358;SDS011;7779;49.596;11.070;2023-04-09T11:10:36;4.97;;;4.47;;
15358;SDS011;7779;49.596;11.070;2023-04-09T11:13:03;4.67;;;4.27;;
15358;SDS011;7779;49.596;11.070;2023-04-09T11:15:30;4.90;;;4.40;;
15358;SDS011;7779;49.596;11.070;2023-04-09T11:17:59;4.37;;;3.97;;
15358;SDS011;7779;49.596;11.070;2023-04-09T11:20:26;4.50;;;4.00;;
15358;SDS011;7779;49.596;11.070;2023-04-09T11:22:52;4.63;;;4.20;;
15358;SDS011;7779;49.596;11.070;2023-04-09T11:25:20;4.40;;;4.00;;
15358;SDS011;7779;49.596;11.070;2023-04-09T11:27:49;4.40;;;4.00;;
15358;SDS011;7779;49.596;11.070;2023-04-09T11:30:15;4.43;;;4.03;;
15358;SDS011;7779;49.596;11.070;2023-04-09T11:32:41;4.33;;;3.93;;
15358;SDS011;7779;49.596;11.070;2023-04-09T11:35:11;4.13;;;3.73;;
15358;SDS011;7779;49.596;11.070;2023-04-09T11:37:41;4.37;;;3.97;;
15358;SDS011;7779;49.596;11.070;2023-04-09T11:40:16;5.03;;;4.53;;
15358;SDS011;7779;49.596;11.070;2023-04-09T11:42:44;4.10;;;3.70;;
15358;SDS011;7779;49.596;11.070;2023-04-09T11:45:13;4.47;;;4.07;;
15358;SDS011;7779;49.596;11.070;2023-04-09T11:47:41;3.93;;;3.60;;
15358;SDS011;7779;49.596;11.070;2023-04-09T11:50:09;4.40;;;4.00;;
15358;SDS011;7779;49.596;11.070;2023-04-09T11:52:37;4.20;;;3.80;;
15358;SDS011;7779;49.596;11.070;2023-04-09T11:55:05;3.87;;;3.50;;
15358;SDS011;7779;49.596;11.070;2023-04-09T12:00:13;3.93;;;3.53;;
15358;SDS011;7779;49.596;11.070;2023-04-09T12:02:42;3.90;;;3.60;;
15358;SDS011;7779;49.596;11.070;2023-04-09T12:05:11;4.03;;;3.63;;
15358;SDS011;7779;49.596;11.070;2023-04-09T12:07:46;3.73;;;3.43;;
15358;SDS011;7779;49.596;11.070;2023-04-09T12:10:12;3.87;;;3.57;;
15358;SDS011;7779;49.596;11.070;2023-04-09T12:12:42;3.90;;;3.60;;
15358;SDS011;7779;49.596;11.070;2023-04-09T12:15:17;4.20;;;3.80;;
15358;SDS011;7779;49.596;11.070;2023-04-09T12:17:52;4.07;;;3.67;;
15358;SDS011;7779;49.596;11.070;2023-04-09T12:20:29;4.23;;;3.83;;
15358;SDS011;7779;49.596;11.070;2023-04-09T12:22:59;4.13;;;3.73;;
15358;SDS011;7779;49.596;11.070;2023-04-09T12:25:31;3.60;;;3.30;;
15358;SDS011;7779;49.596;11.070;2023-04-09T12:28:01;4.03;;;3.63;;
15358;SDS011;7779;49.596;11.070;2023-04-09T12:30:31;3.63;;;3.33;;
15358;SDS011;7779;49.596;11.070;2023-04-09T12:32:58;3.70;;;3.40;;
15358;SDS011;7779;49.596;11.070;2023-04-09T12:35:24;4.30;;;3.60;;
15358;SDS011;7779;49.596;11.070;2023-04-09T12:37:50;4.10;;;3.70;;
15358;SDS011;7779;49.596;11.070;2023-04-09T12:40:16;3.97;;;3.53;;
15358;SDS011;7779;49.596;11.070;2023-04-09T12:42:44;3.70;;;3.40;;
15358;SDS011;7779;49.596;11.070;2023-04-09T12:45:14;3.83;;;3.53;;
15358;SDS011;7779;49.596;11.070;2023-04-09T12:47:42;3.80;;;3.50;;
15358;SDS011;7779;49.596;11.070;2023-04-09T12:50:09;4.30;;;3.90;;
15358;SDS011;7779;49.596;11.070;2023-04-09T12:52:36;4.23;;;3.83;;
15358;SDS011;7779;49.596;11.070;2023-04-09T12:55:02;4.23;;;3.83;;
15358;SDS011;7779;49.596;11.070;2023-04-09T12:57:30;4.07;;;3.77;;
15358;SDS011;7779;49.596;11.070;2023-04-09T12:59:56;3.80;;;3.50;;
15358;SDS011;7779;49.596;11.070;2023-04-09T13:02:22;3.73;;;3.43;;
15358;SDS011;7779;49.596;11.070;2023-04-09T13:04:48;4.23;;;3.83;;
15358;SDS011;7779;49.596;11.070;2023-04-09T13:07:15;3.70;;;3.20;;
15358;SDS011;7779;49.596;11.070;2023-04-09T13:09:43;4.00;;;3.60;;
15358;SDS011;7779;49.596;11.070;2023-04-09T13:12:10;3.50;;;3.20;;
15358;SDS011;7779;49.596;11.070;2023-04-09T13:14:39;4.07;;;3.73;;
15358;SDS011;7779;49.596;11.070;2023-04-09T13:17:05;3.70;;;3.40;;
15358;SDS011;7779;49.596;11.070;2023-04-09T13:19:31;3.80;;;3.50;;
15358;SDS011;7779;49.596;11.070;2023-04-09T13:21:57;3.63;;;3.33;;
15358;SDS011;7779;49.596;11.070;2023-04-09T13:24:23;3.90;;;3.53;;
15358;SDS011;7779;49.596;11.070;2023-04-09T13:26:48;3.63;;;3.33;;
15358;SDS011;7779;49.596;11.070;2023-04-09T13:29:15;3.53;;;3.23;;
15358;SDS011;7779;49.596;11.070;2023-04-09T13:31:41;3.83;;;3.50;;
15358;SDS011;7779;49.596;11.070;2023-04-09T13:34:07;4.10;;;3.70;;
15358;SDS011;7779;49.596;11.070;2023-04-09T13:36:33;4.20;;;3.80;;
15358;SDS011;7779;49.596;11.070;2023-04-09T13:38:59;4.40;;;4.00;;
15358;SDS011;7779;49.596;11.070;2023-04-09T13:41:33;4.10;;;3.70;;
15358;SDS011;7779;49.596;11.070;2023-04-09T13:43:59;4.10;;;3.70;;
15358;SDS011;7779;49.596;11.070;2023-04-09T13:46:26;3.97;;;3.57;;
15358;SDS011;7779;49.596;11.070;2023-04-09T13:48:52;4.17;;;3.77;;
15358;SDS011;7779;49.596;11.070;2023-04-09T13:51:19;4.30;;;3.90;;
15358;SDS011;7779;49.596;11.070;2023-04-09T13:53:46;4.87;;;4.37;;
15358;SDS011;7779;49.596;11.070;2023-04-09T13:56:13;5.03;;;4.53;;
15358;SDS011;7779;49.596;11.070;2023-04-09T13:58:40;4.73;;;4.33;;
15358;SDS011;7779;49.596;11.070;2023-04-09T14:01:07;4.63;;;4.20;;
15358;SDS011;7779;49.596;11.070;2023-04-09T14:03:34;4.57;;;4.17;;
15358;SDS011;7779;49.596;11.070;2023-04-09T14:06:01;4.70;;;4.30;;
15358;SDS011;7779;49.596;11.070;2023-04-09T14:08:28;4.93;;;4.43;;
15358;SDS011;7779;49.596;11.070;2023-04-09T14:10:54;4.77;;;4.20;;
15358;SDS011;7779;49.596;11.070;2023-04-09T14:13:20;4.37;;;3.97;;
15358;SDS011;7779;49.596;11.070;2023-04-09T14:15:46;4.23;;;3.83;;
15358;SDS011;7779;49.596;11.070;2023-04-09T14:18:13;4.27;;;3.87;;
15358;SDS011;7779;49.596;11.070;2023-04-09T14:20:39;4.37;;;3.90;;
15358;SDS011;7779;49.596;11.070;2023-04-09T14:23:05;4.00;;;3.60;;
15358;SDS011;7779;49.596;11.070;2023-04-09T14:25:31;4.80;;;4.30;;
15358;SDS011;7779;49.596;11.070;2023-04-09T14:27:56;4.83;;;4.00;;
15358;SDS011;7779;49.596;11.070;2023-04-09T14:30:23;4.20;;;3.80;;
15358;SDS011;7779;49.596;11.070;2023-04-09T14:32:49;3.97;;;3.57;;
15358;SDS011;7779;49.596;11.070;2023-04-09T14:35:14;4.03;;;3.63;;
15358;SDS011;7779;49.596;11.070;2023-04-09T14:37:40;4.10;;;3.70;;
15358;SDS011;7779;49.596;11.070;2023-04-09T14:40:06;4.40;;;3.93;;
15358;SDS011;7779;49.596;11.070;2023-04-09T14:42:33;4.53;;;4.07;;
15358;SDS011;7779;49.596;11.070;2023-04-09T14:44:58;4.50;;;3.63;;
15358;SDS011;7779;49.596;11.070;2023-04-09T14:47:24;4.17;;;3.77;;
15358;SDS011;7779;49.596;11.070;2023-04-09T14:49:50;4.07;;;3.67;;
15358;SDS011;7779;49.596;11.070;2023-04-09T14:52:15;4.10;;;3.70;;
15358;SDS011;7779;49.596;11.070;2023-04-09T14:54:41;4.07;;;3.63;;
15358;SDS011;7779;49.596;11.070;2023-04-09T14:57:07;4.17;;;3.77;;
15358;SDS011;7779;49.596;11.070;2023-04-09T14:59:33;4.10;;;3.70;;
15358;SDS011;7779;49.596;11.070;2023-04-09T15:01:59;4.90;;;3.83;;
15358;SDS011;7779;49.596;11.070;2023-04-09T15:04:24;3.80;;;3.50;;
15358;SDS011;7779;49.596;11.070;2023-04-09T15:06:50;4.13;;;3.57;;
15358;SDS011;7779;49.596;11.070;2023-04-09T15:09:16;3.90;;;3.60;;
15358;SDS011;7779;49.596;11.070;2023-04-09T15:11:42;4.23;;;3.60;;